createdAt,value
2019-02-20T00:00:27.086Z,8.13
2019-02-20T00:02:57.450Z,7.80
2019-02-20T00:05:27.938Z,8.40
2019-02-20T00:07:58.482Z,8.45
2019-02-20T00:10:29.014Z,8.50
2019-02-20T00:12:59.488Z,7.70
2019-02-20T00:15:30.007Z,8.43
2019-02-20T00:18:00.475Z,8.70
2019-02-20T00:20:30.937Z,9.38
2019-02-20T00:23:01.422Z,8.50
2019-02-20T00:25:31.909Z,8.65
2019-02-20T00:28:02.374Z,9.68
2019-02-20T00:30:32.901Z,8.85
2019-02-20T00:33:03.737Z,8.80
2019-02-20T00:35:34.192Z,8.85
2019-02-20T00:38:04.694Z,9.95
2019-02-20T00:40:35.114Z,10.50
2019-02-20T00:43:05.582Z,9.73
2019-02-20T00:45:45.464Z,10.50
2019-02-20T00:48:23.062Z,10.13
2019-02-20T00:50:58.590Z,9.25
2019-02-20T00:53:36.536Z,8.70
2019-02-20T00:56:07.041Z,10.10
2019-02-20T00:58:37.601Z,8.43
2019-02-20T01:01:08.063Z,8.88
2019-02-20T01:03:38.550Z,8.80
2019-02-20T01:06:08.999Z,9.18
2019-02-20T01:08:39.517Z,8.83
2019-02-20T01:11:09.990Z,7.83
2019-02-20T01:13:40.449Z,8.23
2019-02-20T01:16:10.894Z,8.13
2019-02-20T01:18:41.461Z,8.90
2019-02-20T01:21:11.936Z,9.13
2019-02-20T01:23:42.487Z,8.53
2019-02-20T01:26:12.971Z,8.80
2019-02-20T01:28:43.432Z,9.00
2019-02-20T01:31:13.932Z,8.30
2019-02-20T01:33:44.651Z,6.87
2019-02-20T01:36:15.117Z,8.40
2019-02-20T01:38:45.577Z,8.03
2019-02-20T01:41:15.999Z,8.03
2019-02-20T01:43:46.486Z,7.87
2019-02-20T01:46:16.961Z,8.13
2019-02-20T01:48:47.553Z,6.93
2019-02-20T01:51:18.039Z,8.13
2019-02-20T01:53:48.398Z,7.70
2019-02-20T01:56:18.901Z,7.40
2019-02-20T01:58:49.392Z,7.35
2019-02-20T02:01:19.839Z,6.00
2019-02-20T02:03:50.337Z,6.62
2019-02-20T02:06:20.843Z,6.58
2019-02-20T02:08:51.342Z,8.30
2019-02-20T02:11:21.822Z,6.57
2019-02-20T02:13:52.199Z,7.28
2019-02-20T02:16:22.662Z,7.12
2019-02-20T02:18:53.111Z,6.17
2019-02-20T02:21:23.628Z,7.47
2019-02-20T02:23:54.098Z,7.12
2019-02-20T02:26:24.620Z,7.28
2019-02-20T02:28:55.129Z,6.23
2019-02-20T02:31:25.600Z,6.72
2019-02-20T02:33:56.181Z,6.50
2019-02-20T02:36:26.598Z,5.62
2019-02-20T02:38:57.046Z,6.03
2019-02-20T02:41:27.517Z,6.55
2019-02-20T02:43:58.010Z,5.65
2019-02-20T02:46:28.457Z,7.37
2019-02-20T02:48:58.962Z,6.50
2019-02-20T02:51:29.436Z,6.60
2019-02-20T02:53:59.889Z,6.20
2019-02-20T02:56:30.313Z,7.05
2019-02-20T02:59:00.819Z,6.83
2019-02-20T03:01:31.231Z,6.65
2019-02-20T03:04:01.698Z,6.03
2019-02-20T03:06:32.177Z,6.42
2019-02-20T03:09:03.043Z,6.37
2019-02-20T03:11:33.657Z,5.85
2019-02-20T03:14:04.124Z,6.92
2019-02-20T03:16:34.616Z,7.05
2019-02-20T03:19:05.144Z,6.83
2019-02-20T03:21:35.637Z,6.40
2019-02-20T03:24:06.298Z,6.92
2019-02-20T03:26:36.798Z,6.87
2019-02-20T03:29:07.217Z,7.22
2019-02-20T03:31:37.719Z,6.72
2019-02-20T03:34:09.074Z,7.05
2019-02-20T03:36:39.801Z,6.47
2019-02-20T03:39:10.292Z,7.45
2019-02-20T03:41:40.746Z,6.53
2019-02-20T03:44:11.248Z,7.53
2019-02-20T03:46:41.679Z,7.47
2019-02-20T03:49:12.177Z,7.05
2019-02-20T03:51:42.675Z,7.47
2019-02-20T03:54:13.240Z,8.07
2019-02-20T03:56:43.750Z,7.92
2019-02-20T03:59:14.246Z,7.20
2019-02-20T04:01:44.761Z,7.40
2019-02-20T04:04:15.374Z,8.53
2019-02-20T05:01:23.220Z,12.33
2019-02-20T05:03:53.712Z,14.07
2019-02-20T05:06:24.265Z,13.93
2019-02-20T05:08:54.814Z,12.85
2019-02-20T05:11:25.521Z,15.30
2019-02-20T05:13:56.123Z,14.53
2019-02-20T05:16:26.742Z,14.50
2019-02-20T05:18:57.366Z,12.93
2019-02-20T05:21:27.909Z,13.60
2019-02-20T05:23:58.620Z,15.15
2019-02-20T05:26:29.132Z,14.40
2019-02-20T05:28:59.609Z,13.40
2019-02-20T05:31:30.266Z,14.18
2019-02-20T05:34:01.123Z,14.95
2019-02-20T05:36:31.632Z,14.00
2019-02-20T05:39:02.355Z,14.53
2019-02-20T05:41:32.848Z,13.80
2019-02-20T05:44:03.323Z,14.47
2019-02-20T05:46:33.910Z,14.73
2019-02-20T05:49:04.441Z,14.28
2019-02-20T05:51:34.923Z,16.27
2019-02-20T05:54:05.528Z,15.38
2019-02-20T05:56:36.097Z,13.88
2019-02-20T05:59:06.630Z,14.40
2019-02-20T06:01:37.144Z,15.28
2019-02-20T06:04:07.691Z,13.53
2019-02-20T06:06:38.149Z,15.10
2019-02-20T06:09:08.833Z,13.88
2019-02-20T06:11:39.483Z,13.32
2019-02-20T06:14:10.033Z,13.68
2019-02-20T06:16:40.620Z,14.85
2019-02-20T06:19:11.199Z,14.95
2019-02-20T06:21:41.589Z,13.72
2019-02-20T06:24:12.134Z,13.62
2019-02-20T06:26:42.630Z,15.08
2019-02-20T06:29:13.207Z,14.23
2019-02-20T06:31:43.816Z,14.60
2019-02-20T06:34:14.432Z,13.65
2019-02-20T06:36:45.019Z,12.47
2019-02-20T06:39:15.948Z,14.60
2019-02-20T06:41:48.873Z,14.40
2019-02-20T06:44:19.488Z,14.30
2019-02-20T06:46:49.973Z,14.43
2019-02-20T06:49:20.498Z,13.90
2019-02-20T06:51:51.096Z,14.10
2019-02-20T06:54:21.609Z,14.70
2019-02-20T06:56:52.105Z,14.90
2019-02-20T06:59:22.696Z,14.53
2019-02-20T07:01:53.175Z,14.40
2019-02-20T07:04:23.658Z,14.70
2019-02-20T07:07:58.348Z,14.95
2019-02-20T07:11:09.647Z,14.07
2019-02-20T07:14:09.369Z,14.28
2019-02-20T07:17:30.550Z,15.63
2019-02-20T07:20:50.203Z,14.00
2019-02-20T07:23:43.687Z,15.28
2019-02-20T07:27:05.298Z,14.40
2019-02-20T07:30:05.077Z,14.33
2019-02-20T07:32:35.690Z,14.73
2019-02-20T07:35:08.055Z,14.68
2019-02-20T07:37:38.590Z,14.27
2019-02-20T07:40:12.330Z,15.68
2019-02-20T07:42:42.835Z,15.18
2019-02-20T07:45:15.584Z,15.08
2019-02-20T07:47:46.067Z,15.18
2019-02-20T07:50:20.368Z,15.23
2019-02-20T07:52:52.220Z,15.70
2019-02-20T07:55:22.717Z,16.50
2019-02-20T07:57:53.318Z,15.83
2019-02-20T08:00:23.885Z,17.00
2019-02-20T08:02:54.408Z,16.90
2019-02-20T08:05:24.938Z,17.55
2019-02-20T08:07:55.474Z,14.53
2019-02-20T08:10:26.003Z,17.17
2019-02-20T08:12:56.499Z,15.60
2019-02-20T08:15:27.061Z,15.35
2019-02-20T08:18:00.320Z,15.03
2019-02-20T08:20:30.896Z,15.77
2019-02-20T08:23:01.380Z,16.20
2019-02-20T08:25:31.947Z,16.23
2019-02-20T08:28:02.482Z,16.67
2019-02-20T08:30:33.101Z,16.62
2019-02-20T08:33:03.550Z,16.45
2019-02-20T08:35:34.048Z,17.12
2019-02-20T08:38:04.574Z,17.03
2019-02-20T08:40:38.143Z,17.12
2019-02-20T08:43:08.725Z,15.90
2019-02-20T08:45:39.254Z,18.02
2019-02-20T08:48:09.797Z,17.25
2019-02-20T08:50:40.278Z,16.12
2019-02-20T08:53:10.801Z,17.23
2019-02-20T08:55:41.314Z,16.30
2019-02-20T08:58:11.743Z,16.12
2019-02-20T09:00:42.269Z,16.97
2019-02-20T09:03:12.817Z,15.75
2019-02-20T09:05:43.330Z,17.48
2019-02-20T09:08:14.262Z,17.35
2019-02-20T09:10:44.779Z,17.17
2019-02-20T09:13:15.281Z,17.67
2019-02-20T09:15:48.340Z,16.52
2019-02-20T09:18:18.151Z,17.90
2019-02-20T09:20:48.644Z,17.45
2019-02-20T09:23:22.131Z,16.30
2019-02-20T09:25:53.409Z,16.42
2019-02-20T09:28:23.952Z,15.85
2019-02-20T09:30:54.525Z,16.25
2019-02-20T09:33:25.016Z,16.12
2019-02-20T09:35:55.600Z,17.85
2019-02-20T09:38:26.049Z,15.83
2019-02-20T09:40:56.643Z,16.50
2019-02-20T09:43:27.284Z,16.15
2019-02-20T09:45:57.806Z,17.02
2019-02-20T09:48:28.298Z,17.95
2019-02-20T09:50:58.865Z,17.45
2019-02-20T09:53:29.395Z,16.40
2019-02-20T09:55:59.946Z,16.80
2019-02-20T09:58:30.469Z,16.85
2019-02-20T10:01:02.748Z,15.30
2019-02-20T10:03:33.238Z,14.80
2019-02-20T10:11:22.778Z,15.58
2019-02-20T10:13:53.504Z,16.32
2019-02-20T10:16:24.021Z,16.45
2019-02-20T10:18:54.904Z,15.60
2019-02-20T10:21:25.501Z,14.80
2019-02-20T10:23:56.551Z,14.35
2019-02-20T10:26:27.144Z,15.23
2019-02-20T10:28:57.893Z,16.03
2019-02-20T10:31:28.370Z,16.12
2019-02-20T10:33:58.939Z,15.57
2019-02-20T10:36:29.901Z,16.42
2019-02-20T10:39:00.432Z,15.10
2019-02-20T10:41:30.960Z,15.43
2019-02-20T10:44:01.639Z,15.48
2019-02-20T10:46:32.159Z,14.25
2019-02-20T10:49:02.730Z,14.95
2019-02-20T10:51:33.301Z,14.70
2019-02-20T10:54:03.899Z,14.90
2019-02-20T10:56:34.499Z,15.80
2019-02-20T10:59:05.105Z,15.50
2019-02-20T11:01:35.645Z,14.55
2019-02-20T11:04:06.268Z,14.55
2019-02-20T11:06:36.775Z,16.05
2019-02-20T11:09:07.830Z,15.53
2019-02-20T11:11:38.384Z,15.20
2019-02-20T11:14:08.980Z,15.40
2019-02-20T11:16:39.609Z,14.35
2019-02-20T11:19:10.172Z,16.25
2019-02-20T11:21:40.686Z,14.80
2019-02-20T11:24:11.417Z,15.60
2019-02-20T11:26:50.462Z,14.75
2019-02-20T11:29:14.139Z,14.40
2019-02-20T11:31:44.687Z,15.10
2019-02-20T11:34:15.239Z,14.90
2019-02-20T11:36:45.732Z,15.70
2019-02-20T11:39:16.400Z,14.53
2019-02-20T11:41:46.944Z,16.05
2019-02-20T11:44:21.022Z,14.63
2019-02-20T11:46:49.760Z,14.80
2019-02-20T11:49:20.282Z,15.80
2019-02-20T11:51:50.765Z,15.13
2019-02-20T11:54:21.286Z,14.90
2019-02-20T11:56:51.825Z,15.93
2019-02-20T11:59:22.337Z,15.55
2019-02-20T12:01:53.363Z,14.43
2019-02-20T12:04:23.983Z,14.35
2019-02-20T12:06:54.465Z,15.13
2019-02-20T12:09:25.070Z,14.95
2019-02-20T12:11:55.820Z,15.40
2019-02-20T12:14:26.362Z,14.28
2019-02-20T12:16:56.911Z,13.08
2019-02-20T12:19:27.465Z,15.32
2019-02-20T12:21:58.029Z,13.00
2019-02-20T12:24:28.579Z,12.55
2019-02-20T12:26:59.297Z,15.00
2019-02-20T12:29:30.171Z,15.40
2019-02-20T12:32:00.694Z,14.95
2019-02-20T12:34:31.228Z,14.93
2019-02-20T12:37:01.812Z,15.83
2019-02-20T12:39:32.375Z,15.13
2019-02-20T12:42:02.941Z,14.80
2019-02-20T12:44:33.529Z,14.78
2019-02-20T12:47:04.081Z,15.25
2019-02-20T12:49:34.686Z,13.98
2019-02-20T12:52:05.182Z,15.23
2019-02-20T12:54:35.722Z,13.85
2019-02-20T12:57:06.248Z,13.55
2019-02-20T12:59:36.909Z,13.20
2019-02-20T13:02:07.791Z,14.40
2019-02-20T13:04:38.448Z,14.23
2019-02-20T13:07:08.969Z,14.20
2019-02-20T13:09:39.615Z,13.72
2019-02-20T13:12:10.099Z,14.18
2019-02-20T13:14:40.631Z,14.30
2019-02-20T13:17:11.201Z,13.40
2019-02-20T13:19:41.791Z,14.53
2019-02-20T13:22:12.292Z,14.13
2019-02-20T13:24:43.983Z,14.63
2019-02-20T13:27:22.576Z,13.40
2019-02-20T13:29:46.886Z,13.23
2019-02-20T13:32:23.270Z,12.93
2019-02-20T13:34:53.786Z,12.88
2019-02-20T13:37:25.130Z,14.20
2019-02-20T13:39:55.774Z,13.25
2019-02-20T13:42:26.351Z,12.58
2019-02-20T13:44:56.959Z,12.80
2019-02-20T13:47:27.525Z,12.18
2019-02-20T13:49:58.058Z,13.10
2019-02-20T13:52:30.420Z,13.28
2019-02-20T13:55:01.056Z,14.73
2019-02-20T13:57:31.621Z,14.45
2019-02-20T14:00:02.243Z,12.95
2019-02-20T14:02:32.785Z,13.30
2019-02-20T14:05:03.444Z,12.80
2019-02-20T14:07:34.086Z,13.43
2019-02-20T14:10:06.609Z,14.13
2019-02-20T14:12:37.617Z,13.50
2019-02-20T14:15:10.257Z,13.30
2019-02-20T14:17:40.860Z,12.60
2019-02-20T14:20:12.089Z,12.40
2019-02-20T14:22:43.162Z,12.93
2019-02-20T14:25:13.837Z,11.33
2019-02-20T14:27:44.422Z,13.13
2019-02-20T14:30:14.983Z,12.20
2019-02-20T14:32:46.886Z,12.73
2019-02-20T14:35:17.469Z,13.23
2019-02-20T14:37:48.046Z,11.22
2019-02-20T14:40:18.529Z,12.00
2019-02-20T14:42:49.000Z,12.35
2019-02-20T14:45:19.549Z,11.57
2019-02-20T14:47:50.027Z,10.68
2019-02-20T14:50:20.795Z,11.68
2019-02-20T14:52:51.305Z,11.83
2019-02-20T14:55:40.900Z,11.73
2019-02-20T14:58:11.528Z,13.00
2019-02-20T15:00:42.459Z,10.98
2019-02-20T15:03:12.986Z,12.88
2019-02-20T15:05:43.586Z,12.10
2019-02-20T15:08:14.106Z,12.45
2019-02-20T15:10:44.658Z,12.80
2019-02-20T15:13:15.175Z,12.15
2019-02-20T15:15:47.392Z,13.80
2019-02-20T15:18:18.156Z,12.90
2019-02-20T15:20:48.900Z,13.50
2019-02-20T15:23:19.364Z,12.53
2019-02-20T15:25:49.874Z,12.50
2019-02-20T15:28:20.732Z,13.03
2019-02-20T15:30:51.211Z,12.90
2019-02-20T15:33:23.425Z,13.53
2019-02-20T15:35:54.133Z,13.43
2019-02-20T15:38:24.662Z,14.05
2019-02-20T15:40:55.176Z,13.98
2019-02-20T15:43:25.710Z,14.30
2019-02-20T15:45:56.214Z,14.80
2019-02-20T15:48:26.848Z,14.00
2019-02-20T15:50:57.444Z,14.33
2019-02-20T15:53:27.947Z,15.58
2019-02-20T15:55:58.546Z,13.80
2019-02-20T15:58:29.094Z,15.23
2019-02-20T16:00:59.655Z,14.63
2019-02-20T16:03:30.123Z,14.00
2019-02-20T16:06:00.834Z,13.90
2019-02-20T16:08:31.443Z,14.10
2019-02-20T16:11:02.267Z,15.10
2019-02-20T16:13:32.857Z,14.28
2019-02-20T16:16:03.426Z,14.10
2019-02-20T16:18:33.969Z,14.10
2019-02-20T16:21:05.111Z,12.95
2019-02-20T16:23:36.303Z,12.45
2019-02-20T16:26:06.898Z,12.82
2019-02-20T16:28:37.527Z,12.00
2019-02-20T16:31:07.994Z,12.07
2019-02-20T16:33:38.814Z,11.48
2019-02-20T16:36:09.411Z,9.75
2019-02-20T16:38:40.204Z,10.05
2019-02-20T16:41:10.774Z,9.40
2019-02-20T16:43:41.333Z,9.53
2019-02-20T16:46:11.972Z,9.35
2019-02-20T16:48:43.214Z,8.73
2019-02-20T16:51:13.841Z,9.35
2019-02-20T16:53:44.556Z,8.90
2019-02-20T16:56:15.209Z,8.93
2019-02-20T16:58:45.775Z,9.10
2019-02-20T17:01:17.790Z,10.28
2019-02-20T17:03:48.339Z,8.53
2019-02-20T17:06:19.398Z,8.80
2019-02-20T17:08:50.217Z,7.90
2019-02-20T17:11:20.834Z,7.10
2019-02-20T17:13:51.319Z,7.72
2019-02-20T17:16:22.485Z,7.30
2019-02-20T17:18:53.168Z,7.45
2019-02-20T17:21:23.682Z,6.85
2019-02-20T17:23:54.233Z,7.42
2019-02-20T17:26:24.723Z,7.35
2019-02-20T17:28:55.207Z,6.65
2019-02-20T17:31:25.739Z,5.78
2019-02-20T17:33:56.584Z,5.60
2019-02-20T17:36:27.110Z,5.85
2019-02-20T17:38:57.588Z,5.40
2019-02-20T17:41:28.094Z,4.60
2019-02-20T17:43:58.561Z,5.20
2019-02-20T17:46:29.029Z,5.20
2019-02-20T17:48:59.578Z,5.45
2019-02-20T17:51:30.298Z,5.10
2019-02-20T17:54:00.796Z,4.75
2019-02-20T17:56:31.301Z,4.85
2019-02-20T17:59:01.840Z,4.50
2019-02-20T18:01:32.384Z,4.43
2019-02-20T18:04:02.929Z,4.50
2019-02-20T18:06:33.441Z,5.47
2019-02-20T18:09:04.504Z,4.80
2019-02-20T18:11:34.984Z,4.90
2019-02-20T18:14:05.492Z,4.70
2019-02-20T18:16:35.956Z,4.90
2019-02-20T18:19:06.453Z,5.10
2019-02-20T18:21:37.003Z,5.65
2019-02-20T18:24:07.598Z,5.55
2019-02-20T18:26:38.091Z,5.47
2019-02-20T18:29:08.603Z,5.65
2019-02-20T18:31:39.025Z,5.00
2019-02-20T18:34:09.553Z,5.22
2019-02-20T18:36:40.047Z,4.80
2019-02-20T18:39:10.623Z,5.03
2019-02-20T18:41:41.073Z,5.00
2019-02-20T18:44:11.654Z,5.10
2019-02-20T18:46:42.157Z,5.00
2019-02-20T18:49:12.665Z,5.50
2019-02-20T18:51:43.191Z,5.42
2019-02-20T18:54:13.748Z,4.80
2019-02-20T18:56:44.159Z,4.65
2019-02-20T18:59:14.640Z,5.20
2019-02-20T19:01:45.092Z,5.25
2019-02-20T19:04:15.601Z,5.20
2019-02-20T19:06:46.156Z,4.75
2019-02-20T19:09:24.534Z,5.50
2019-02-20T19:12:46.503Z,4.60
2019-02-20T19:16:04.762Z,4.40
2019-02-20T19:19:09.617Z,5.37
2019-02-20T19:22:26.756Z,4.85
2019-02-20T19:25:46.534Z,4.78
2019-02-20T19:29:15.563Z,4.50
2019-02-20T19:32:41.455Z,5.00
2019-02-20T19:36:03.377Z,4.50
2019-02-20T19:39:37.761Z,4.42
2019-02-20T19:43:02.363Z,4.45
2019-02-20T19:46:31.013Z,4.75
2019-02-20T19:50:10.899Z,5.65
2019-02-20T19:53:29.431Z,4.37
2019-02-20T19:56:31.703Z,5.33
2019-02-20T20:00:16.856Z,4.80
2019-02-20T20:03:33.575Z,5.57
2019-02-20T20:07:04.098Z,5.60
2019-02-20T20:10:22.429Z,4.87
2019-02-20T20:13:35.481Z,4.65
2019-02-20T20:17:04.624Z,5.00
2019-02-20T20:20:12.715Z,4.90
2019-02-20T20:23:49.578Z,4.70
2019-02-20T20:27:25.049Z,5.10
2019-02-20T20:31:13.692Z,4.85
2019-02-20T20:35:10.446Z,5.00
2019-02-20T20:38:46.652Z,5.30
2019-02-20T20:42:36.605Z,5.53
2019-02-20T20:46:25.410Z,5.20
2019-02-20T20:50:01.031Z,4.92
2019-02-20T20:52:56.093Z,6.47
2019-02-20T20:56:35.858Z,5.93
2019-02-20T20:59:44.459Z,5.37
2019-02-20T21:02:42.434Z,6.10
2019-02-20T21:05:53.029Z,5.95
2019-02-20T21:09:04.176Z,5.20
2019-02-20T21:12:39.058Z,5.10
2019-02-20T21:15:47.690Z,5.70
2019-02-20T21:18:58.844Z,7.12
2019-02-20T21:22:19.494Z,6.00
2019-02-20T21:25:51.794Z,6.50
2019-02-20T21:29:11.156Z,6.78
2019-02-20T21:33:00.343Z,5.85
2019-02-20T21:35:52.262Z,5.80
2019-02-20T21:39:33.882Z,6.85
2019-02-20T21:42:43.836Z,6.35
2019-02-20T21:46:02.768Z,6.25
2019-02-20T21:49:07.393Z,7.00
2019-02-20T21:52:49.657Z,6.80
2019-02-20T21:55:58.453Z,6.70
2019-02-20T21:58:51.017Z,7.33
2019-02-20T22:02:06.184Z,6.47
2019-02-20T22:05:42.114Z,7.42
2019-02-20T22:27:52.951Z,7.92
2019-02-20T22:31:19.921Z,7.60
2019-02-20T22:34:39.117Z,8.55
2019-02-20T22:37:56.059Z,9.00
2019-02-20T22:41:03.430Z,9.25
2019-02-20T22:44:07.193Z,8.33
2019-02-20T22:47:11.980Z,7.83
2019-02-20T22:50:43.157Z,8.20
2019-02-20T22:54:14.455Z,9.23
2019-02-20T22:57:34.528Z,8.55
2019-02-20T23:01:01.410Z,8.63
2019-02-20T23:04:16.922Z,8.98
2019-02-20T23:07:59.246Z,8.83
2019-02-20T23:11:29.266Z,9.40
2019-02-20T23:14:45.535Z,8.60
2019-02-20T23:17:16.019Z,9.48
2019-02-20T23:19:46.523Z,10.08
2019-02-20T23:22:17.116Z,9.85
2019-02-20T23:24:47.677Z,9.87
2019-02-20T23:27:18.217Z,9.23
2019-02-20T23:29:48.962Z,10.17
2019-02-20T23:32:19.487Z,9.80
2019-02-20T23:34:50.047Z,9.60
2019-02-20T23:37:20.674Z,10.45
2019-02-20T23:39:51.202Z,10.00
2019-02-20T23:42:21.894Z,9.85
2019-02-20T23:44:52.482Z,9.25
2019-02-20T23:47:23.100Z,9.80
2019-02-20T23:49:53.653Z,10.05
2019-02-20T23:52:24.197Z,9.30
2019-02-20T23:54:54.739Z,9.60
2019-02-20T23:57:25.448Z,10.20
2019-02-20T23:59:55.980Z,9.58
